Nearby METAR Reports

 

KPLU - Puyallup/Thun, Washington, USA
Distance from station: SSW 10mi, 16km
Updated: Wed, 24-Apr-2024 11:35pm PDT
Overcast
Overcast
 Wind from calm
Wind: Calm
Temperature: 48°F , 9°C
Dew Point: 48°F , 9°C
Humidity: 100%
Barometer: 30.01 inHg , 1016.3 hPa
Clouds: Overcast
Visibility: 8 miles , 13 km
Cloud details: Overcast 2900 ft
2024/04/25 06:35 KPLU 250635Z AUTO 00000KT 8SM OVC029 09/09 A3001 RMK AO2
KTCM - Tacoma/Mc Chord, Washington, USA
Distance from station: SW 15mi, 24km
Updated: Wed, 24-Apr-2024 11:35pm PDT
Overcast
Overcast
 Wind from S
Wind: S 7 mph , 11 km/h
Temperature: 50°F , 10°C
Wind Chill: 47°F , 8°C
Dew Point: 48°F , 9°C
Humidity: 94%
Barometer: 29.99 inHg , 1015.6 hPa
Clouds: Overcast
Visibility: 10 miles , 16 km
Cloud details: Mostly cloudy 2300 ft
Overcast 3000 ft
2024/04/25 06:35 KTCM 250635Z AUTO 19006KT 10SM BKN023 OVC030 10/09 A2999 RMK AO2 CIG 023V032 BKN V SCT SLP160 $
 
KSEA - Seattle/Metro, Washington, USA
Distance from station: NNW 16mi, 25km
Updated: Wed, 24-Apr-2024 10:53pm PDT
Overcast
Overcast
 Wind from S
Wind: S 9 mph , 15 km/h
Temperature: 50°F , 10°C
Wind Chill: 46°F , 8°C
Dew Point: 46°F , 8°C
Humidity: 88%
Barometer: 30.00 inHg , 1015.9 hPa
Clouds: Overcast
Visibility: 10 miles , 16 km
Cloud details: Overcast 6000 ft
2024/04/25 05:53 KSEA 250553Z 18008KT 10SM OVC060 10/08 A3000 RMK AO2 SLP167 6//// T01000083 58004 $
KRNT - Renton, Washington, USA
Distance from station: N 18mi, 29km
Updated: Wed, 24-Apr-2024 10:53pm PDT
Overcast
Overcast
 Wind from SE
Wind: SE 5 mph , 7 km/h
Temperature: 52°F , 11°C
Dew Point: 48°F , 9°C
Humidity: 88%
Barometer: 30.01 inHg , 1016.3 hPa
Clouds: Overcast
Visibility: 10 miles , 16 km
Cloud details: Overcast 6000 ft
2024/04/25 05:53 KRNT 250553Z AUTO 13004KT 10SM OVC060 11/09 A3001 RMK AO2 SLP166 60000 T01060089 10122 20100 58004
 
KTIW - Tacoma, Washington, USA
Distance from station: W 18mi, 29km
Updated: Wed, 24-Apr-2024 10:53pm PDT
Overcast
Overcast
 Wind from S
Wind: S 7 mph , 11 km/h
Temperature: 50°F , 10°C
Wind Chill: 47°F , 8°C
Dew Point: 46°F , 8°C
Humidity: 88%
Barometer: 30.01 inHg , 1016.3 hPa
Clouds: Overcast
Visibility: 10 miles , 16 km
Cloud details: Overcast 4000 ft
2024/04/25 05:53 KTIW 250553Z AUTO 19006KT 10SM OVC040 10/08 A3001 RMK AO2 SLP163 60000 T01000078 10122 20100 58001
KGRF - Fort Lewis/Gray, Washington, USA
Distance from station: SW 21mi, 33km
Updated: Wed, 24-Apr-2024 11:10pm PDT
Overcast
Overcast
 Wind from SE
Wind: SE 5 mph , 7 km/h
Temperature: 50°F , 10°C
Wind Chill: 48°F , 9°C
Dew Point: 48°F , 9°C
Humidity: 94%
Barometer: 29.98 inHg , 1015.2 hPa
Clouds: Overcast
Visibility: 10 miles , 16 km
Cloud details: Mostly cloudy 2900 ft
Overcast 3400 ft
2024/04/25 06:10 KGRF 250610Z AUTO 14004KT 10SM BKN029 OVC034 10/09 A2998 RMK AO2 CIG 029V034 SLP156 $
 
KBFI - Seattle/Boeing, Washington, USA
Distance from station: NNW 22mi, 36km
Updated: Wed, 24-Apr-2024 10:53pm PDT
Overcast
Overcast
 Wind from SSE
Wind: SSE 6 mph , 9 km/h
Temperature: 52°F , 11°C
Dew Point: 46°F , 8°C
Humidity: 82%
Barometer: 30.01 inHg , 1016.3 hPa
Clouds: Overcast
Visibility: 10 miles , 16 km
Cloud details: Overcast 6000 ft
2024/04/25 05:53 KBFI 250553Z 15005KT 10SM OVC060 11/08 A3001 RMK AO2 SLP160 60000 T01110078 10128 20106 58004
KPWT - Bremerton Ntnl, Washington, USA
Distance from station: NW 31mi, 50km
Updated: Wed, 24-Apr-2024 10:56pm PDT
Overcast
Overcast
 Wind from SSW
Wind: SSW 6 mph , 9 km/h
Temperature: 48°F , 9°C
Wind Chill: 45°F , 7°C
Dew Point: 45°F , 7°C
Humidity: 87%
Barometer: 30.00 inHg , 1015.9 hPa
Clouds: Overcast
Visibility: 10 miles , 16 km
Cloud details: Overcast 5000 ft
2024/04/25 05:56 KPWT 250556Z AUTO 20005KT 10SM OVC050 09/07 A3000 RMK AO2 SLP163 60000 T00890067 10122 20083 58003
 
KOLM - Olympia, Washington, USA
Distance from station: WSW 38mi, 60km
Updated: Wed, 24-Apr-2024 11:08pm PDT
Overcast
Overcast
 Wind from S
Wind: S 3 mph , 6 km/h
Temperature: 50°F , 10°C
Dew Point: 48°F , 9°C
Humidity: 94%
Barometer: 30.01 inHg , 1016.3 hPa
Clouds: Overcast
Visibility: 10 miles , 16 km
Cloud details: Partly cloudy 2400 ft
Overcast 2900 ft
2024/04/25 06:08 KOLM 250608Z AUTO 18003KT 10SM SCT024 OVC029 10/09 A3001 RMK AO2 T01000089
KSMP - Stampede Pass, Washington, USA
Distance from station: E 41mi, 66km
Updated: Wed, 24-Apr-2024 11:33pm PDT
Fog, Overcast
Fog, Overcast
 Wind from WNW
Wind: WNW 6 mph , 9 km/h
Temperature: 37°F , 3°C
Wind Chill: 32°F , 0°C
Dew Point: 36°F , 2°C
Humidity: 93%
Barometer: 29.94 inHg , 1013.9 hPa
Summary: Fog
Clouds: Overcast
Visibility: 1/2 mile , 0.8 km
Cloud details: Overcast 200 ft
2024/04/25 06:33 KSMP 250633Z AUTO 29005KT 1/2SM FG VV002 03/02 A2994 RMK AO2 T00330022
 
KSHN - Shelton, Washington, USA
Distance from station: W 43mi, 70km
Updated: Wed, 24-Apr-2024 10:53pm PDT
Overcast
Overcast
 Wind from calm
Wind: Calm
Temperature: 50°F , 10°C
Dew Point: 45°F , 7°C
Humidity: 82%
Barometer: 29.98 inHg , 1015.2 hPa
Clouds: Overcast
Visibility: 10 miles , 16 km
Cloud details: Overcast 4200 ft
2024/04/25 05:53 KSHN 250553Z AUTO 00000KT 10SM OVC042 10/07 A2998 RMK AO2 SLP154 T01000067 10128 20094 58004
KPAE - Everett, Washington, USA
Distance from station: N 47mi, 76km
Updated: Wed, 24-Apr-2024 11:39pm PDT
Mostly cloudy
Mostly cloudy
 Wind from varies
Wind: varies 3 mph , 6 km/h
Temperature: 50°F , 10°C
Dew Point: 45°F , 7°C
Humidity: 82%
Barometer: 29.99 inHg , 1015.6 hPa
Clouds: Mostly cloudy
Visibility: 10 miles , 16 km
Cloud details: Mostly cloudy 2400 ft
2024/04/25 06:39 KPAE 250639Z AUTO VRB03KT 10SM BKN024 10/07 A2999 RMK AO2 T01000067